Terminal Aerodrome Forecast
Issued by NWS

Home | Current Version | Previous Version | Text Only | Print | Product List | Glossary On
Versions: 1 2 3 4 5 6 7 8 9 10 11 12
000
FTUS42 TJSJ 281126
TAFKPK
TAF
TKPK 281126Z 2812/0112 07014KT P6SM VCSH FEW018 SCT035
     FM281300 06015KT P6SM FEW020
     FM282300 07010KT P6SM VCSH SCT018=

USA.gov is the U.S. government's official web portal to all federal, state and local government web resources and services.